Time;durP1;ratioP1;P1;durP2;ratioP2;P2;SDS_P1;SDS_P2;PMS_P1;PMS_P2;Temp;Humidity;BMP_temperature;BMP_pressure;BME280_temperature;BME280_humidity;BME280_pressure;Samples;Min_cycle;Max_cycle;Signal;HPM_P1;HPM_P2
2022/05/14 00:00:46;;;;;;;14.80;4.83;;;;;;;10.16;58.25;100829.22;1748899;79;21077;-72
2022/05/14 00:03:12;;;;;;;15.45;6.75;;;;;;;10.16;58.33;100832.72;1758469;79;21438;-72
2022/05/14 00:05:37;;;;;;;16.67;5.35;;;;;;;10.17;58.35;100838.89;1718824;82;21428;-72
2022/05/14 00:08:04;;;;;;;6.53;3.17;;;;;;;10.17;58.43;100833.04;1760671;79;21330;-72
2022/05/14 00:10:31;;;;;;;11.50;3.65;;;;;;;10.20;58.47;100834.58;1726557;82;21014;-72
2022/05/14 00:13:03;;;;;;;8.53;3.30;;;;;;;10.19;58.51;100833.73;1748996;79;21037;-72
2022/05/14 00:15:36;;;;;;;7.80;3.55;;;;;;;10.18;58.57;100842.72;1761467;79;20991;-72
2022/05/14 00:18:04;;;;;;;10.95;3.52;;;;;;;10.16;58.59;100836.72;1756260;79;22209;-72
2022/05/14 00:20:31;;;;;;;12.70;3.35;;;;;;;10.15;58.64;100840.37;1755691;79;21817;-72
2022/05/14 00:22:58;;;;;;;8.13;3.50;;;;;;;10.14;58.71;100839.14;1753304;79;21510;-72
2022/05/14 00:25:24;;;;;;;9.65;5.15;;;;;;;10.14;58.75;100836.02;1718525;81;21063;-72
2022/05/14 00:27:50;;;;;;;8.78;4.17;;;;;;;10.13;58.80;100847.66;1752981;79;21112;-72
2022/05/14 00:30:18;;;;;;;11.28;3.45;;;;;;;10.11;58.86;100845.63;1765160;80;21471;-72
2022/05/14 00:32:44;;;;;;;7.97;3.30;;;;;;;10.11;58.91;100853.63;1747065;80;21166;-72
2022/05/14 00:35:10;;;;;;;9.90;3.22;;;;;;;10.13;58.95;100849.00;1736449;80;21163;-72
2022/05/14 00:37:37;;;;;;;11.97;3.58;;;;;;;10.16;58.98;100850.05;1734682;80;21004;-72
2022/05/14 00:40:04;;;;;;;10.58;3.25;;;;;;;10.21;59.03;100849.06;1745998;81;21038;-72
2022/05/14 00:42:31;;;;;;;8.55;3.02;;;;;;;10.22;59.06;100844.08;1750986;81;21024;-72
2022/05/14 00:44:58;;;;;;;12.68;2.75;;;;;;;10.28;59.08;100838.11;1744771;81;22052;-72
2022/05/14 00:47:24;;;;;;;9.38;2.85;;;;;;;10.32;59.12;100841.30;1748398;81;21044;-72
2022/05/14 00:49:50;;;;;;;7.30;2.58;;;;;;;10.32;59.15;100831.97;1747043;81;21764;-72
2022/05/14 00:52:18;;;;;;;8.80;3.17;;;;;;;10.33;59.17;100830.49;1748495;81;20907;-71
2022/05/14 00:54:52;;;;;;;8.43;3.33;;;;;;;10.32;59.21;100832.81;1747421;81;21003;-72
2022/05/14 00:57:21;;;;;;;11.25;3.10;;;;;;;10.32;59.24;100835.48;1746925;81;21849;-72
2022/05/14 00:59:47;;;;;;;5.53;3.00;;;;;;;10.34;59.26;100833.51;1744580;81;20981;-72
2022/05/14 01:02:12;;;;;;;11.38;3.40;;;;;;;10.35;59.27;100832.49;1749290;81;20999;-72
2022/05/14 01:04:40;;;;;;;10.72;3.37;;;;;;;10.36;59.27;100828.84;1745727;81;20893;-72
2022/05/14 01:07:13;;;;;;;5.70;2.95;;;;;;;10.35;59.27;100832.49;1753651;80;22879;-72
2022/05/14 01:09:41;;;;;;;6.00;2.90;;;;;;;10.34;59.29;100825.51;1747520;80;21737;-72
2022/05/14 01:12:08;;;;;;;9.13;2.87;;;;;;;10.34;59.32;100823.34;1746982;80;20988;-72
2022/05/14 01:14:34;;;;;;;10.23;2.95;;;;;;;10.33;59.32;100822.50;1741193;80;20993;-72
2022/05/14 01:17:00;;;;;;;6.75;3.30;;;;;;;10.31;59.35;100819.13;1744291;80;21889;-72
2022/05/14 01:19:27;;;;;;;15.28;3.37;;;;;;;10.29;59.37;100819.80;1718968;82;21018;-72
2022/05/14 01:22:34;;;;;;;9.95;3.98;;;;;;;10.28;59.41;100827.45;1731278;82;21491;-72
2022/05/14 01:27:50;;;;;;;13.15;5.20;;;;;;;10.22;59.46;100821.92;1726135;82;21010;-72
2022/05/14 01:30:16;;;;;;;14.28;4.10;;;;;;;10.19;59.50;100825.74;1704268;83;20986;-72
2022/05/14 01:32:45;;;;;;;10.75;4.60;;;;;;;10.16;59.56;100822.06;1698336;82;21573;-72
2022/05/14 01:35:16;;;;;;;11.95;3.75;;;;;;;10.14;59.59;100820.03;1701652;82;21235;-72
2022/05/14 01:37:43;;;;;;;10.68;4.00;;;;;;;10.13;59.63;100816.17;1707281;82;21026;-72
2022/05/14 01:40:09;;;;;;;10.98;3.55;;;;;;;10.11;59.66;100821.65;1687269;82;21612;-72
2022/05/14 01:42:35;;;;;;;9.08;2.98;;;;;;;10.09;59.70;100812.15;1702139;82;21073;-72
2022/05/14 01:45:02;;;;;;;12.45;3.47;;;;;;;10.10;59.75;100810.64;1693324;82;21102;-72
2022/05/14 01:47:28;;;;;;;8.05;2.70;;;;;;;10.10;59.80;100813.30;1704664;82;21551;-72
2022/05/14 01:49:54;;;;;;;5.87;3.10;;;;;;;10.12;59.84;100816.67;1698124;82;21689;-72
2022/05/14 01:52:20;;;;;;;8.78;3.27;;;;;;;10.11;59.91;100812.32;1697874;82;21045;-72
2022/05/14 01:54:46;;;;;;;9.58;3.45;;;;;;;10.11;59.96;100818.98;1697220;82;20982;-72
2022/05/14 01:57:12;;;;;;;9.90;3.52;;;;;;;10.12;60.03;100806.50;1694447;82;21082;-72
2022/05/14 01:59:38;;;;;;;14.28;3.42;;;;;;;10.12;60.09;100814.00;1694988;82;21765;-72
2022/05/14 02:02:08;;;;;;;7.12;3.58;;;;;;;10.13;60.15;100814.84;1692996;82;20895;-72
2022/05/14 02:04:34;;;;;;;9.20;3.55;;;;;;;10.12;60.23;100811.34;1697876;82;21814;-72
2022/05/14 02:07:01;;;;;;;10.50;3.10;;;;;;;10.13;60.29;100807.69;1699447;82;20942;-72
2022/05/14 02:09:26;;;;;;;7.35;3.60;;;;;;;10.13;60.34;100803.69;1701905;82;21050;-71
2022/05/14 02:11:52;;;;;;;10.80;3.42;;;;;;;10.12;60.40;100808.67;1701427;82;21059;-72
2022/05/14 02:14:18;;;;;;;12.88;3.92;;;;;;;10.12;60.43;100806.01;1700072;82;21512;-72
2022/05/14 02:16:44;;;;;;;9.80;4.12;;;;;;;10.12;60.48;100803.34;1699159;83;20933;-72
2022/05/14 02:19:10;;;;;;;12.20;3.55;;;;;;;10.14;60.55;100801.38;1717521;81;21441;-72
2022/05/14 02:21:37;;;;;;;8.63;3.72;;;;;;;10.15;60.59;100805.72;1716365;81;21525;-72
2022/05/14 02:24:04;;;;;;;9.78;4.35;;;;;;;10.14;60.63;100805.38;1725052;81;21159;-72
2022/05/14 02:26:30;;;;;;;8.40;4.05;;;;;;;10.12;60.67;100798.02;1727631;81;21448;-72
2022/05/14 02:28:56;;;;;;;10.68;4.70;;;;;;;10.12;60.73;100802.01;1713882;81;20987;-72
2022/05/14 02:31:22;;;;;;;6.97;4.10;;;;;;;10.13;60.77;100793.03;1722331;81;20993;-72
2022/05/14 02:33:48;;;;;;;9.78;4.30;;;;;;;10.13;60.83;100797.03;1719707;81;20998;-72
2022/05/14 02:36:14;;;;;;;7.10;4.40;;;;;;;10.15;60.86;100793.73;1710558;81;21511;-72
2022/05/14 02:38:40;;;;;;;14.15;4.90;;;;;;;10.19;60.96;100799.09;1725969;81;20914;-72
2022/05/14 02:45:22;;;;;;;11.45;4.67;;;;;;;10.26;61.11;100785.47;1780974;78;29153;-69
2022/05/14 02:47:49;;;;;;;14.00;4.55;;;;;;;10.25;61.21;100787.78;1757300;80;21057;-71
2022/05/14 02:50:15;;;;;;;10.15;4.40;;;;;;;10.25;61.30;100789.61;1758333;80;21755;-72
2022/05/14 02:52:42;;;;;;;8.95;4.60;;;;;;;10.21;61.38;100783.77;1759223;80;20967;-72
2022/05/14 02:55:08;;;;;;;9.00;4.78;;;;;;;10.16;61.42;100781.24;1756092;80;21017;-72
2022/05/14 02:57:35;;;;;;;12.13;4.50;;;;;;;10.11;61.47;100782.17;1760648;80;21030;-72
2022/05/14 03:00:02;;;;;;;6.42;4.47;;;;;;;10.06;61.50;100779.16;1760109;80;21019;-72
2022/05/14 03:02:28;;;;;;;9.03;4.50;;;;;;;10.02;61.54;100775.97;1761985;80;21026;-72
2022/05/14 03:04:57;;;;;;;10.40;4.80;;;;;;;9.98;61.62;100772.78;1758160;80;21078;-72
2022/05/14 03:07:23;;;;;;;11.30;5.20;;;;;;;9.94;61.66;100778.08;1763523;80;21525;-73
2022/05/14 03:09:49;;;;;;;14.65;4.75;;;;;;;9.91;61.72;100781.55;1761356;80;20876;-72
2022/05/14 03:12:15;;;;;;;29.45;6.53;;;;;;;9.86;61.78;100771.36;1764381;80;20892;-72
2022/05/14 03:14:41;;;;;;;16.02;4.70;;;;;;;9.86;61.83;100778.51;1762356;80;21104;-72
2022/05/14 03:17:07;;;;;;;9.50;4.03;;;;;;;9.85;61.88;100776.86;1758004;80;20903;-72
2022/05/14 03:19:34;;;;;;;7.17;4.50;;;;;;;9.87;61.96;100784.19;1758994;80;21062;-72
2022/05/14 03:22:01;;;;;;;11.25;5.00;;;;;;;9.88;62.02;100781.88;1750317;80;21456;-72
2022/05/14 03:24:27;;;;;;;11.73;4.87;;;;;;;9.89;62.09;100783.03;1763988;80;21022;-72
2022/05/14 03:26:53;;;;;;;15.93;5.08;;;;;;;9.91;62.19;100780.22;1759356;80;20901;-72
2022/05/14 03:29:19;;;;;;;10.03;4.80;;;;;;;9.93;62.24;100776.89;1762678;80;20892;-72
2022/05/14 03:31:47;;;;;;;16.12;5.90;;;;;;;9.96;62.30;100775.24;1757611;80;21055;-72
2022/05/14 03:34:13;;;;;;;14.65;5.42;;;;;;;9.98;62.40;100772.78;1760567;80;21353;-72
2022/05/14 03:36:42;;;;;;;11.22;4.65;;;;;;;10.03;62.42;100770.95;1758663;80;20974;-72
2022/05/14 03:39:08;;;;;;;9.13;4.70;;;;;;;10.02;62.46;100775.48;1766163;80;21197;-72
2022/05/14 03:41:34;;;;;;;9.00;4.53;;;;;;;10.09;62.51;100777.51;1784226;78;20986;-72
2022/05/14 03:44:00;;;;;;;11.70;3.85;;;;;;;10.16;62.52;100772.76;1795114;78;21054;-72
2022/05/14 03:46:26;;;;;;;10.40;4.92;;;;;;;10.28;62.52;100772.80;1785135;78;20871;-72
2022/05/14 03:48:52;;;;;;;10.82;4.50;;;;;;;10.36;62.51;100774.19;1786821;78;21076;-72
2022/05/14 03:51:18;;;;;;;12.03;4.53;;;;;;;10.49;62.52;100776.41;1779728;78;21253;-72
2022/05/14 03:53:44;;;;;;;10.63;4.58;;;;;;;11.05;62.76;100778.94;1785910;78;20994;-72
2022/05/14 03:56:10;;;;;;;8.38;3.55;;;;;;;11.78;62.62;100783.86;1787888;78;21657;-72
2022/05/14 03:58:36;;;;;;;12.25;4.05;;;;;;;12.39;62.34;100780.55;1783170;78;21115;-72
2022/05/14 04:01:04;;;;;;;7.33;3.77;;;;;;;12.88;61.99;100777.16;1779738;78;21044;-72
2022/05/14 04:03:31;;;;;;;13.05;4.25;;;;;;;13.32;61.68;100778.27;1780563;78;21204;-73
2022/05/14 04:05:58;;;;;;;10.30;3.92;;;;;;;13.93;61.07;100763.83;1783728;78;20979;-73
2022/05/14 04:08:24;;;;;;;18.87;4.60;;;;;;;13.93;61.07;100763.83;1787229;78;21029;-73
2022/05/14 04:10:50;;;;;;;10.88;4.17;;;;;;;14.27;60.51;100787.47;1781963;78;21286;-73
2022/05/14 04:13:16;;;;;;;8.35;4.50;;;;;;;14.50;60.08;100795.44;1781573;78;21614;-73
2022/05/14 04:15:42;;;;;;;6.97;3.17;;;;;;;14.81;59.81;100784.52;1784358;78;21712;-73
2022/05/14 04:18:09;;;;;;;7.95;3.80;;;;;;;15.23;59.29;100791.30;1786704;78;21046;-73
2022/05/14 04:20:35;;;;;;;10.38;3.42;;;;;;;15.57;58.80;100791.98;1787061;78;21011;-73
2022/05/14 04:23:03;;;;;;;7.40;3.45;;;;;;;15.49;57.99;100786.22;1788271;78;21029;-73
2022/05/14 04:25:29;;;;;;;7.40;3.80;;;;;;;15.26;57.48;100782.86;1793915;78;21023;-73
2022/05/14 04:27:56;;;;;;;9.83;4.05;;;;;;;14.62;57.20;100787.26;1782344;78;21128;-73
2022/05/14 04:30:22;;;;;;;6.95;3.47;;;;;;;14.20;57.07;100794.58;1785043;78;21539;-73
2022/05/14 04:32:48;;;;;;;7.47;3.90;;;;;;;13.63;57.06;100800.13;1782605;78;21627;-73
2022/05/14 04:35:15;;;;;;;6.12;3.70;;;;;;;13.30;57.03;100799.02;1786819;78;21575;-73
2022/05/14 04:37:41;;;;;;;8.18;4.30;;;;;;;13.25;57.05;100796.56;1724035;81;21485;-73
2022/05/14 04:40:08;;;;;;;5.97;3.75;;;;;;;13.12;56.83;100806.53;1749997;80;21075;-73
2022/05/14 04:42:38;;;;;;;11.10;4.55;;;;;;;13.44;56.86;100792.90;1753768;80;21062;-73
2022/05/14 04:45:08;;;;;;;6.90;4.05;;;;;;;13.38;56.71;100788.77;1724507;81;21050;-73
2022/05/14 04:47:35;;;;;;;8.63;3.90;;;;;;;13.50;56.82;100787.34;1747242;80;20991;-73
2022/05/14 04:50:01;;;;;;;8.45;3.37;;;;;;;13.84;56.86;100782.36;1743454;80;21073;-73
2022/05/14 04:52:27;;;;;;;11.78;3.87;;;;;;;14.11;56.85;100783.59;1724605;81;21042;-73
2022/05/14 04:54:53;;;;;;;11.15;4.33;;;;;;;14.22;56.78;100788.52;1723633;81;21002;-74
2022/05/14 04:57:19;;;;;;;5.75;3.47;;;;;;;14.34;56.75;100791.11;1722505;81;21063;-73
2022/05/14 04:59:45;;;;;;;9.00;3.35;;;;;;;14.56;56.66;100797.91;1750704;80;21038;-74
2022/05/14 05:04:58;;;;;;;6.65;3.30;;;;;;;14.73;56.26;100789.98;1720225;81;22104;-72
2022/05/14 05:07:24;;;;;;;9.00;3.37;;;;;;;14.95;56.07;100791.70;1718508;81;21019;-71
2022/05/14 05:09:50;;;;;;;9.75;3.83;;;;;;;15.13;55.92;100801.50;1717520;81;21635;-72
2022/05/14 05:12:16;;;;;;;15.00;3.58;;;;;;;15.38;55.74;100800.13;1737971;81;21118;-72
2022/05/14 05:14:42;;;;;;;9.68;3.27;;;;;;;15.55;55.57;100805.30;1726918;81;20908;-72
2022/05/14 05:17:08;;;;;;;8.98;3.62;;;;;;;15.63;55.47;100797.08;1726977;81;21080;-72
2022/05/14 05:19:34;;;;;;;7.50;3.47;;;;;;;15.95;55.28;100792.00;1714899;81;21569;-72
2022/05/14 05:22:02;;;;;;;10.78;3.62;;;;;;;16.05;54.86;100792.99;1732100;81;21066;-72
2022/05/14 05:24:29;;;;;;;12.07;3.77;;;;;;;16.14;54.58;100776.20;1732344;81;21043;-72
2022/05/14 05:26:55;;;;;;;12.10;3.42;;;;;;;16.46;54.46;100787.18;1721673;81;21511;-72
2022/05/14 05:29:21;;;;;;;7.25;2.87;;;;;;;16.81;54.22;100776.39;1739392;80;21236;-72
2022/05/14 05:31:47;;;;;;;7.17;3.42;;;;;;;16.86;53.77;100780.64;1710361;81;20904;-72
2022/05/14 05:34:13;;;;;;;10.18;3.60;;;;;;;16.24;53.53;100782.06;1719013;81;21063;-72
2022/05/14 05:36:39;;;;;;;6.33;3.17;;;;;;;15.85;53.41;100786.63;1743385;80;21066;-72
2022/05/14 05:39:05;;;;;;;11.63;3.35;;;;;;;15.54;53.39;100800.44;1726511;81;21588;-72
2022/05/14 05:41:31;;;;;;;11.88;3.42;;;;;;;15.19;53.33;100798.08;1724423;81;21202;-71
2022/05/14 05:43:59;;;;;;;11.33;3.52;;;;;;;15.26;53.37;100803.02;1724714;81;21056;-71
2022/05/14 05:46:25;;;;;;;8.50;3.72;;;;;;;15.09;53.32;100800.24;1734737;81;21115;-71
2022/05/14 05:48:51;;;;;;;10.20;3.55;;;;;;;15.24;53.44;100792.95;1725899;81;21555;-71
2022/05/14 05:51:17;;;;;;;13.75;3.60;;;;;;;15.42;53.44;100802.75;1738700;81;21025;-74
2022/05/14 05:59:14;;;;;;;4.60;3.08;;;;;;;15.38;53.63;100800.13;1729095;81;21080;-74
2022/05/14 06:01:40;;;;;;;9.95;4.28;;;;;;;15.54;53.54;100803.63;1741402;81;21015;-74
2022/05/14 06:04:06;;;;;;;11.90;3.67;;;;;;;15.66;53.54;100791.31;1724558;81;21022;-74
2022/05/14 06:06:32;;;;;;;14.07;3.30;;;;;;;15.84;53.48;100802.45;1725654;81;21180;-75
2022/05/14 06:08:59;;;;;;;7.62;3.02;;;;;;;15.94;53.44;100800.25;1729703;81;21043;-75
2022/05/14 06:11:25;;;;;;;6.35;2.90;;;;;;;16.06;53.42;100802.73;1725881;81;21055;-75
2022/05/14 06:13:52;;;;;;;16.00;3.33;;;;;;;16.29;53.27;100804.65;1729650;81;21025;-75
2022/05/14 06:16:18;;;;;;;7.30;3.37;;;;;;;16.56;53.18;100820.50;1734250;81;21042;-75
2022/05/14 06:18:44;;;;;;;9.18;3.77;;;;;;;16.66;52.94;100824.17;1727598;81;21545;-75
2022/05/14 06:21:11;;;;;;;10.28;4.28;;;;;;;16.37;52.75;100815.27;1731790;81;21013;-75
2022/05/14 06:23:36;;;;;;;7.25;3.72;;;;;;;16.39;52.75;100819.13;1712919;81;21140;-75
2022/05/14 06:26:02;;;;;;;9.65;3.58;;;;;;;16.36;52.76;100821.67;1718262;81;20975;-75
2022/05/14 06:28:29;;;;;;;10.50;3.92;;;;;;;16.74;52.66;100821.33;1739601;81;21550;-75
2022/05/14 06:30:56;;;;;;;9.15;3.80;;;;;;;16.81;52.41;100819.50;1732255;81;22152;-75
2022/05/14 06:33:22;;;;;;;10.38;3.47;;;;;;;17.04;52.34;100830.77;1732602;81;21583;-75
2022/05/14 06:35:48;;;;;;;8.78;3.98;;;;;;;17.33;52.18;100816.99;1724371;81;21835;-75
2022/05/14 06:38:15;;;;;;;6.30;3.45;;;;;;;17.35;51.88;100824.34;1723733;81;21039;-75
2022/05/14 06:40:41;;;;;;;14.10;4.08;;;;;;;17.54;51.80;100823.25;1727674;81;21008;-75
2022/05/14 06:43:08;;;;;;;10.35;4.10;;;;;;;17.78;51.65;100825.38;1740481;81;21807;-75
2022/05/14 06:45:34;;;;;;;8.95;3.62;;;;;;;17.93;51.43;100817.93;1724151;81;21344;-75
2022/05/14 06:48:00;;;;;;;22.45;4.22;;;;;;;18.04;51.04;100831.33;1716568;82;21016;-75
2022/05/14 06:50:30;;;;;;;9.50;3.62;;;;;;;18.07;50.77;100826.34;1701858;82;21613;-75
2022/05/14 06:52:58;;;;;;;7.50;3.37;;;;;;;18.16;50.49;100826.42;1710170;82;21468;-75
2022/05/14 06:55:26;;;;;;;9.38;3.52;;;;;;;18.31;50.28;100826.20;1715453;82;21091;-75
2022/05/14 06:57:52;;;;;;;11.15;4.55;;;;;;;18.15;49.81;100836.10;1706871;82;21088;-75
2022/05/14 07:00:18;;;;;;;9.55;4.28;;;;;;;17.76;49.74;100831.52;1716618;82;21138;-75
2022/05/14 07:02:44;;;;;;;9.23;3.40;;;;;;;17.48;49.79;100833.84;1714418;82;21053;-75
2022/05/14 07:07:54;;;;;;;13.55;4.55;;;;;;;17.00;49.86;100842.98;1711627;82;21152;-75
2022/05/14 07:10:20;;;;;;;9.70;3.58;;;;;;;16.86;49.98;100839.41;1727988;81;20875;-75
2022/05/14 07:12:46;;;;;;;8.40;3.33;;;;;;;17.34;50.12;100836.70;1718993;81;21472;-75
2022/05/14 07:15:12;;;;;;;9.90;3.20;;;;;;;17.90;50.03;100834.54;1724574;81;20973;-75
2022/05/14 07:17:39;;;;;;;6.25;3.10;;;;;;;18.01;49.76;100843.37;1707027;82;20923;-75
2022/05/14 07:20:06;;;;;;;7.28;3.42;;;;;;;17.95;49.73;100847.71;1715254;81;21874;-75
2022/05/14 07:22:32;;;;;;;7.45;3.02;;;;;;;18.30;49.67;100842.09;1714607;81;21521;-75
2022/05/14 07:24:58;;;;;;;7.35;2.90;;;;;;;18.46;49.38;100840.32;1716015;81;21049;-75
2022/05/14 07:27:24;;;;;;;8.85;3.30;;;;;;;18.44;49.19;100837.81;1720295;81;21050;-75
2022/05/14 07:29:50;;;;;;;10.88;3.58;;;;;;;18.44;48.88;100840.52;1708528;82;21064;-75
2022/05/14 07:32:18;;;;;;;8.45;2.62;;;;;;;18.65;48.77;100844.03;1724076;81;21983;-75
2022/05/14 07:34:44;;;;;;;10.82;3.10;;;;;;;18.72;48.47;100829.47;1711876;82;21509;-75
2022/05/14 07:37:18;;;;;;;7.33;3.12;;;;;;;18.89;48.38;100837.41;1720457;81;21042;-75
2022/05/14 07:39:48;;;;;;;12.75;3.35;;;;;;;19.31;48.25;100831.95;1735320;81;21063;-73
2022/05/14 07:42:19;;;;;;;12.05;2.72;;;;;;;19.26;47.71;100839.88;1698897;81;21077;-73
2022/05/14 07:44:47;;;;;;;10.75;3.12;;;;;;;18.84;47.54;100831.00;1729024;81;23197;-73
2022/05/14 07:50:05;;;;;;;6.70;2.58;;;;;;;18.54;47.06;100836.61;1816593;77;23419;-75
2022/05/14 07:52:31;;;;;;;8.70;2.65;;;;;;;18.48;47.06;100830.13;1805882;78;21518;-74
2022/05/14 07:55:00;;;;;;;10.93;3.30;;;;;;;18.66;46.84;100828.14;1743580;81;21143;-75
2022/05/14 07:57:26;;;;;;;7.67;2.47;;;;;;;19.01;46.74;100830.83;1748406;81;21356;-75
2022/05/14 07:59:52;;;;;;;9.15;2.95;;;;;;;19.33;46.26;100829.84;1739666;81;21045;-75
2022/05/14 08:02:31;;;;;;;12.25;2.98;;;;;;;19.41;46.10;100828.80;1747484;81;21751;-76
2022/05/14 08:04:57;;;;;;;9.33;2.58;;;;;;;19.37;45.91;100833.78;1730035;81;21452;-75
2022/05/14 08:07:23;;;;;;;18.42;3.27;;;;;;;18.96;45.56;100827.95;1736795;81;21153;-75
2022/05/14 08:09:49;;;;;;;11.33;2.50;;;;;;;18.77;45.34;100824.27;1754028;80;20992;-75
2022/05/14 08:12:15;;;;;;;11.78;2.77;;;;;;;18.83;45.10;100830.16;1744974;80;21709;-75
2022/05/14 08:14:41;;;;;;;21.23;3.33;;;;;;;18.98;44.76;100830.42;1758322;80;21062;-75
2022/05/14 08:17:09;;;;;;;10.80;2.60;;;;;;;19.02;44.34;100828.44;1762426;79;20891;-74
2022/05/14 08:19:34;;;;;;;7.25;2.35;;;;;;;19.19;44.12;100819.31;1761887;79;21004;-75
2022/05/14 08:24:45;;;;;;;12.03;2.60;;;;;;;19.50;43.65;100819.89;1744593;80;20996;-75
2022/05/14 08:27:11;;;;;;;26.80;3.40;;;;;;;19.73;43.26;100818.29;1737496;80;21562;-75
2022/05/14 08:29:37;;;;;;;17.62;3.12;;;;;;;19.94;42.61;100818.44;1735633;81;21045;-75
2022/05/14 08:32:04;;;;;;;11.33;2.80;;;;;;;20.06;42.12;100817.17;1738946;81;21145;-75
2022/05/14 08:34:30;;;;;;;9.30;2.72;;;;;;;20.20;41.70;100807.36;1736165;81;21098;-74
2022/05/14 08:36:57;;;;;;;21.50;2.85;;;;;;;20.38;41.39;100806.07;1734921;81;20958;-75
2022/05/14 08:39:23;;;;;;;9.48;2.15;;;;;;;20.42;40.90;100808.64;1737581;81;21022;-75
2022/05/14 08:41:50;;;;;;;11.05;3.00;;;;;;;20.30;40.30;100809.61;1721342;81;21027;-75
2022/05/14 08:44:23;;;;;;;9.70;2.45;;;;;;;19.88;39.95;100805.76;1700863;83;21965;-75
2022/05/14 08:47:06;;;;;;;13.03;3.33;;;;;;;19.40;39.77;100815.77;1715212;83;21102;-74
2022/05/14 08:49:44;;;;;;;11.43;2.58;;;;;;;19.41;39.90;100818.81;1705936;82;21059;-75
2022/05/14 08:52:23;;;;;;;10.08;2.30;;;;;;;19.54;39.65;100800.82;1744223;80;21082;-74
2022/05/14 08:54:51;;;;;;;;;;;;;;;19.50;39.06;100803.13;1747456;80;21098;-75
2022/05/14 08:57:47;;;;;;;8.38;2.02;;;;;;;19.55;38.94;100802.48;1743870;80;21059;-75
2022/05/14 09:00:14;;;;;;;18.52;2.47;;;;;;;20.08;38.85;100803.73;1750880;80;21454;-76
2022/05/14 09:02:48;;;;;;;10.75;2.30;;;;;;;20.34;38.20;100808.92;1737469;80;21110;-75
2022/05/14 09:05:19;;;;;;;9.10;2.65;;;;;;;20.37;37.73;100792.77;1755555;79;21010;-75
2022/05/14 09:07:45;;;;;;;11.22;2.15;;;;;;;20.39;37.62;100806.37;1754125;79;21023;-75
2022/05/14 09:10:30;;;;;;;20.27;2.60;;;;;;;20.09;37.10;100807.28;1758728;79;21798;-75
2022/05/14 09:12:59;;;;;;;13.40;2.50;;;;;;;19.75;37.06;100807.23;1745122;79;21014;-75
2022/05/14 09:15:32;;;;;;;12.28;2.70;;;;;;;19.56;37.15;100816.33;1764453;79;21101;-75
2022/05/14 09:18:08;;;;;;;13.18;2.70;;;;;;;19.55;37.25;100813.31;1771381;79;21004;-75
2022/05/14 09:20:49;;;;;;;9.28;2.45;;;;;;;19.62;37.22;100808.69;1744906;80;21034;-75
2022/05/14 09:23:32;;;;;;;8.60;2.45;;;;;;;19.33;37.13;100809.56;1753124;79;22290;-74
2022/05/14 09:26:18;;;;;;;8.33;2.22;;;;;;;19.34;37.23;100817.16;1698188;82;21027;-75
2022/05/14 09:28:52;;;;;;;9.98;2.20;;;;;;;19.49;37.13;100810.13;1719923;82;21141;-75
2022/05/14 09:31:36;;;;;;;9.45;2.20;;;;;;;19.44;37.04;100818.38;1717433;82;21609;-75
2022/05/14 09:34:12;;;;;;;16.80;3.08;;;;;;;19.72;37.11;100814.44;1724125;81;21056;-75
2022/05/14 09:36:39;;;;;;;7.50;2.10;;;;;;;20.14;36.87;100810.97;1717839;82;21176;-74
2022/05/14 09:39:19;;;;;;;14.95;2.55;;;;;;;20.21;36.43;100810.37;1719130;82;21040;-75
2022/05/14 09:41:56;;;;;;;9.80;2.92;;;;;;;20.16;36.45;100816.17;1717583;82;21070;-75
2022/05/14 09:44:30;;;;;;;7.37;2.75;;;;;;;20.25;36.49;100810.23;1720944;81;21022;-75
2022/05/14 09:47:14;;;;;;;17.52;3.20;;;;;;;20.19;36.37;100821.97;1728925;82;21499;-75
2022/05/14 09:49:41;;;;;;;13.03;2.95;;;;;;;20.00;36.39;100825.67;1722179;81;21137;-75
2022/05/14 09:52:10;;;;;;;13.00;2.62;;;;;;;19.77;36.38;100820.03;1730092;82;21468;-75
2022/05/14 09:54:45;;;;;;;16.05;2.55;;;;;;;19.62;36.44;100823.56;1725682;82;21605;-75
2022/05/14 09:57:41;;;;;;;8.55;3.02;;;;;;;19.53;36.48;100822.19;1710474;82;21027;-74
2022/05/14 10:00:33;;;;;;;9.85;2.50;;;;;;;19.92;36.66;100811.05;1719181;82;21026;-74
2022/05/14 10:03:31;;;;;;;23.32;3.33;;;;;;;20.30;36.53;100815.83;1711130;82;21173;-74
2022/05/14 10:06:10;;;;;;;14.35;2.72;;;;;;;20.35;36.32;100813.81;1720017;81;21093;-74
2022/05/14 10:08:56;;;;;;;;;;;;;;;20.38;36.28;100810.13;1717310;82;21138;-74
2022/05/14 10:11:28;;;;;;;18.07;3.02;;;;;;;20.15;36.09;100823.47;1711860;82;20254;-74
2022/05/14 10:14:12;;;;;;;18.37;2.70;;;;;;;19.83;36.11;100811.02;1723149;82;21027;-74
2022/05/14 10:17:10;;;;;;;10.43;2.30;;;;;;;19.76;36.19;100812.95;1715908;82;21142;-74
2022/05/14 10:20:11;;;;;;;12.73;2.33;;;;;;;19.80;36.19;100806.89;1709061;82;21024;-74
2022/05/14 10:28:57;;;;;;;10.45;2.52;;;;;;;19.90;36.35;100798.27;1731708;82;21071;-74
2022/05/14 10:31:35;;;;;;;9.98;2.75;;;;;;;19.76;36.31;100811.60;1732531;82;21110;-74
2022/05/14 10:34:10;;;;;;;12.43;3.15;;;;;;;19.70;36.27;100804.37;1728843;82;21191;-75
2022/05/14 10:36:44;;;;;;;12.70;2.90;;;;;;;19.70;36.24;100808.42;1719151;81;21044;-75
2022/05/14 10:39:18;;;;;;;24.65;3.83;;;;;;;20.11;36.25;100789.75;1723806;82;21989;-75
2022/05/14 10:41:46;;;;;;;11.53;2.80;;;;;;;20.73;36.10;100794.11;1726317;81;21077;-75
2022/05/14 10:44:27;;;;;;;11.88;3.33;;;;;;;20.87;35.54;100785.28;1692638;82;21066;-75
2022/05/14 10:46:53;;;;;;;10.20;2.12;;;;;;;20.60;35.28;100796.15;1762211;81;21028;-75
2022/05/14 10:49:39;;;;;;;11.80;3.08;;;;;;;20.65;35.12;100780.05;1767458;81;21038;-75
2022/05/14 10:52:12;;;;;;;14.20;3.50;;;;;;;20.83;34.98;100780.02;1766325;80;21012;-75
2022/05/14 10:54:38;;;;;;;16.65;2.90;;;;;;;20.99;34.90;100787.55;1761012;81;21035;-75
2022/05/14 10:57:19;;;;;;;11.95;2.33;;;;;;;20.93;34.74;100789.82;1739900;82;21142;-75
2022/05/14 10:59:49;;;;;;;11.28;3.02;;;;;;;20.57;34.54;100788.48;1762872;81;21051;-75
2022/05/14 11:02:32;;;;;;;12.50;2.85;;;;;;;20.31;34.67;100793.12;1763429;81;21035;-75
2022/05/14 11:04:58;;;;;;;21.05;3.55;;;;;;;20.42;34.90;100789.67;1775693;80;21333;-75
2022/05/14 11:07:42;;;;;;;22.27;3.02;;;;;;;20.59;34.93;100781.77;1771899;80;21084;-75
2022/05/14 11:10:19;;;;;;;10.03;2.37;;;;;;;20.75;34.83;100777.63;1774285;80;21860;-75
2022/05/14 11:12:46;;;;;;;16.52;2.37;;;;;;;21.06;34.77;100782.86;1767649;80;20992;-75
2022/05/14 11:15:25;;;;;;;12.95;2.77;;;;;;;21.02;34.40;100767.27;1772952;80;21065;-75
2022/05/14 11:18:10;;;;;;;8.10;2.60;;;;;;;20.77;34.37;100786.36;1775738;80;21016;-75
2022/05/14 11:20:37;;;;;;;6.40;1.98;;;;;;;20.63;34.37;100780.27;1775412;80;21102;-75
2022/05/14 11:23:09;;;;;;;8.03;2.15;;;;;;;20.55;34.42;100778.41;1746118;80;21168;-75
2022/05/14 11:25:35;;;;;;;42.83;4.08;;;;;;;20.43;34.33;100776.44;1753678;80;21011;-75
2022/05/14 11:28:25;;;;;;;14.50;3.02;;;;;;;20.37;34.36;100775.95;1737163;81;21070;-76
2022/05/14 11:31:00;;;;;;;13.60;3.00;;;;;;;20.51;34.42;100776.67;1760798;81;20990;-75
2022/05/14 11:33:31;;;;;;;11.55;2.80;;;;;;;20.61;34.46;100777.48;1742820;80;20990;-75
2022/05/14 11:36:14;;;;;;;9.88;2.70;;;;;;;20.63;34.39;100774.02;1769083;81;21117;-75
2022/05/14 11:38:44;;;;;;;12.65;2.85;;;;;;;20.74;34.49;100782.75;1753494;80;21004;-76
2022/05/14 11:41:29;;;;;;;6.72;2.40;;;;;;;20.58;34.41;100768.46;1755906;80;21035;-75
2022/05/14 11:43:55;;;;;;;7.17;2.22;;;;;;;20.63;34.52;100776.72;1764323;80;21015;-76
2022/05/14 11:46:36;;;;;;;9.00;2.08;;;;;;;20.62;34.38;100768.31;1756977;80;21054;-76
2022/05/14 11:49:12;;;;;;;11.85;3.00;;;;;;;20.43;34.39;100772.37;1752901;81;21168;-75
2022/05/14 11:51:59;;;;;;;7.60;2.12;;;;;;;20.41;34.55;100769.04;1747940;81;21050;-76
2022/05/14 11:54:58;;;;;;;10.78;2.25;;;;;;;20.42;34.63;100764.45;1773255;80;21075;-76
2022/05/14 11:57:38;;;;;;;15.13;2.62;;;;;;;20.46;34.75;100764.31;1773574;80;21003;-76
2022/05/14 12:00:12;;;;;;;10.63;2.92;;;;;;;20.47;34.77;100757.84;1744739;80;21070;-75
2022/05/14 12:03:00;;;;;;;7.58;2.47;;;;;;;20.28;34.71;100761.06;1749907;80;21983;-76